Time;durP1;ratioP1;P1;durP2;ratioP2;P2;SDS_P1;SDS_P2;PMS_P1;PMS_P2;Temp;Humidity;BMP_temperature;BMP_pressure;BME280_temperature;BME280_humidity;BME280_pressure;Samples;Min_cycle;Max_cycle;Signal;HPM_P1;HPM_P2
2023/06/14 00:01:45;;;;;;;5.00;1.70;;;;;;;-128.00;-1.00;-1.00;97869;295;1004699;-34
2023/06/14 00:04:12;;;;;;;5.00;2.70;;;;;;;-128.00;-1.00;-1.00;98009;295;1003143;-32
2023/06/14 00:06:38;;;;;;;14.90;3.40;;;;;;;-128.00;-1.00;-1.00;97948;295;1002938;-29
2023/06/14 00:09:04;;;;;;;3.20;2.10;;;;;;;-128.00;-1.00;-1.00;97896;295;1003004;-33
2023/06/14 00:11:33;;;;;;;1.70;1.30;;;;;;;-128.00;-1.00;-1.00;97907;295;1003118;-28
2023/06/14 00:13:59;;;;;;;4.90;3.20;;;;;;;-128.00;-1.00;-1.00;97811;295;1002929;-33
2023/06/14 00:16:24;;;;;;;3.80;1.90;;;;;;;-128.00;-1.00;-1.00;97911;295;1005459;-33
2023/06/14 00:18:53;;;;;;;2.90;2.10;;;;;;;-128.00;-1.00;-1.00;97842;295;1003244;-28
2023/06/14 00:21:19;;;;;;;3.80;2.50;;;;;;;-128.00;-1.00;-1.00;97873;295;1004364;-33
2023/06/14 00:23:44;;;;;;;4.40;2.20;;;;;;;-128.00;-1.00;-1.00;97958;295;1003470;-30
2023/06/14 00:26:11;;;;;;;6.40;2.40;;;;;;;-128.00;-1.00;-1.00;97952;295;1003347;-33
2023/06/14 00:28:36;;;;;;;6.20;2.50;;;;;;;-128.00;-1.00;-1.00;98056;295;1004807;-38
2023/06/14 00:31:02;;;;;;;5.80;3.90;;;;;;;-128.00;-1.00;-1.00;97955;295;1004273;-30
2023/06/14 00:33:28;;;;;;;3.70;2.50;;;;;;;-128.00;-1.00;-1.00;97799;295;1004759;-31
2023/06/14 00:35:53;;;;;;;4.10;2.60;;;;;;;-128.00;-1.00;-1.00;97785;295;1002922;-29
2023/06/14 01:19:08;;;;;;;8.80;4.60;;;;;;;-100.82;19.12;19876.56;97689;297;2544336;-34
2023/06/14 01:21:41;;;;;;;11.60;4.10;;;;;;;-128.00;-1.00;-1.00;97432;298;1003767;-29
2023/06/14 01:24:09;;;;;;;3.60;2.30;;;;;;;-128.00;-1.00;-1.00;97875;296;1003483;-30
2023/06/14 01:26:37;;;;;;;3.80;2.60;;;;;;;-128.00;-1.00;-1.00;86742;285;3003064;-34
2023/06/14 01:29:04;;;;;;;5.10;3.20;;;;;;;-128.00;-1.00;-1.00;18902;297;7504765;-31
2023/06/14 01:31:39;;;;;;;4.50;3.30;;;;;;;-128.00;-1.00;-1.00;18870;285;7504585;-30
2023/06/14 01:34:05;;;;;;;2.30;1.20;;;;;;;-128.00;-1.00;-1.00;18482;324;7505073;-34
2023/06/14 01:36:31;;;;;;;3.60;2.10;;;;;;;-128.00;-1.00;-1.00;18883;289;7504549;-34
2023/06/14 01:38:58;;;;;;;3.90;2.10;;;;;;;-128.00;-1.00;-1.00;18907;336;7505330;-34
2023/06/14 01:41:24;;;;;;;3.40;2.70;;;;;;;-128.00;-1.00;-1.00;18442;348;7504589;-34
2023/06/14 01:43:50;;;;;;;3.20;2.40;;;;;;;-128.00;-1.00;-1.00;18469;308;7504779;-30
2023/06/14 01:46:15;;;;;;;4.00;2.50;;;;;;;-128.00;-1.00;-1.00;18486;297;7506052;-31
2023/06/14 01:48:42;;;;;;;5.80;3.70;;;;;;;-128.00;-1.00;-1.00;18844;348;7505642;-34
2023/06/14 01:51:08;;;;;;;2.10;1.80;;;;;;;-128.00;-1.00;-1.00;18442;308;7504237;-34
2023/06/14 01:53:34;;;;;;;4.00;2.70;;;;;;;-128.00;-1.00;-1.00;18846;297;7504411;-34
2023/06/14 01:56:01;;;;;;;3.40;2.50;;;;;;;-128.00;-1.00;-1.00;18851;296;7504851;-34
2023/06/14 01:58:27;;;;;;;2.50;2.20;;;;;;;-128.00;-1.00;-1.00;18450;289;7505127;-31
2023/06/14 02:00:55;;;;;;;2.90;2.00;;;;;;;-128.00;-1.00;-1.00;18463;304;7504805;-35
2023/06/14 02:03:21;;;;;;;4.10;3.00;;;;;;;-128.00;-1.00;-1.00;18500;297;7506102;-31
2023/06/14 02:05:47;;;;;;;3.70;2.50;;;;;;;-128.00;-1.00;-1.00;18442;296;7505247;-32
2023/06/14 02:08:12;;;;;;;4.70;2.30;;;;;;;-128.00;-1.00;-1.00;18457;289;7504633;-35
2023/06/14 02:10:38;;;;;;;5.70;2.80;;;;;;;-128.00;-1.00;-1.00;18478;285;7504480;-31
2023/06/14 02:13:04;;;;;;;3.30;2.40;;;;;;;-128.00;-1.00;-1.00;18890;285;7504884;-35
2023/06/14 02:15:33;;;;;;;3.70;2.70;;;;;;;-128.00;-1.00;-1.00;18870;304;7505455;-32
2023/06/14 02:18:01;;;;;;;3.10;2.60;;;;;;;-128.00;-1.00;-1.00;18479;289;7504571;-32
2023/06/14 02:20:27;;;;;;;3.10;2.30;;;;;;;-128.00;-1.00;-1.00;18474;288;7505793;-35
2023/06/14 02:22:52;;;;;;;2.80;2.50;;;;;;;-128.00;-1.00;-1.00;18495;296;7506064;-35
2023/06/14 02:25:18;;;;;;;1.90;1.40;;;;;;;-128.00;-1.00;-1.00;18448;296;7504504;-35
2023/06/14 02:27:43;;;;;;;6.10;2.30;;;;;;;-128.00;-1.00;-1.00;18482;348;7504803;-35
2023/06/14 02:30:10;;;;;;;2.50;1.80;;;;;;;-128.00;-1.00;-1.00;18454;303;7505974;-35
2023/06/14 02:32:36;;;;;;;7.30;1.90;;;;;;;-128.00;-1.00;-1.00;18494;296;7506261;-31
2023/06/14 02:35:02;;;;;;;5.80;3.30;;;;;;;-128.00;-1.00;-1.00;18853;288;7505202;-31
2023/06/14 02:37:28;;;;;;;2.50;1.60;;;;;;;-128.00;-1.00;-1.00;18452;288;7504735;-30
2023/06/14 02:39:55;;;;;;;6.90;3.10;;;;;;;-128.00;-1.00;-1.00;18873;288;7506469;-32
2023/06/14 02:42:22;;;;;;;3.50;2.70;;;;;;;-128.00;-1.00;-1.00;18466;296;7504812;-35
2023/06/14 02:44:51;;;;;;;9.40;3.30;;;;;;;-128.00;-1.00;-1.00;18464;297;7505766;-35
2023/06/14 02:47:19;;;;;;;2.90;2.50;;;;;;;-128.00;-1.00;-1.00;18472;296;7506545;-35
2023/06/14 02:49:49;;;;;;;4.00;3.40;;;;;;;-128.00;-1.00;-1.00;18476;296;7505544;-35
2023/06/14 02:52:15;;;;;;;3.80;3.10;;;;;;;-128.00;-1.00;-1.00;18447;304;7504846;-31
2023/06/14 02:54:41;;;;;;;14.50;3.20;;;;;;;-128.00;-1.00;-1.00;18458;348;7504911;-31
2023/06/14 02:57:07;;;;;;;3.40;2.40;;;;;;;-128.00;-1.00;-1.00;18466;288;7505312;-35
2023/06/14 02:59:35;;;;;;;2.50;1.60;;;;;;;-128.00;-1.00;-1.00;18502;304;7506214;-35
2023/06/14 03:02:00;;;;;;;3.90;2.50;;;;;;;-128.00;-1.00;-1.00;18472;288;7505086;-35
2023/06/14 03:04:26;;;;;;;3.20;2.90;;;;;;;-128.00;-1.00;-1.00;18507;288;7504673;-35
2023/06/14 03:06:53;;;;;;;4.00;2.60;;;;;;;-128.00;-1.00;-1.00;18472;295;7504375;-31
2023/06/14 03:09:20;;;;;;;4.40;3.20;;;;;;;-128.00;-1.00;-1.00;18459;288;7504472;-34
2023/06/14 03:11:45;;;;;;;11.50;2.60;;;;;;;-128.00;-1.00;-1.00;18458;288;7506481;-32
2023/06/14 03:14:13;;;;;;;4.30;2.90;;;;;;;-128.00;-1.00;-1.00;18445;288;7504380;-31
2023/06/14 03:16:39;;;;;;;5.00;3.30;;;;;;;-128.00;-1.00;-1.00;18474;295;7505323;-35
2023/06/14 03:19:04;;;;;;;12.80;6.10;;;;;;;-128.00;-1.00;-1.00;18470;288;7504240;-35
2023/06/14 03:21:30;;;;;;;14.60;5.20;;;;;;;-128.00;-1.00;-1.00;18494;303;7506553;-31
2023/06/14 03:23:56;;;;;;;8.40;4.20;;;;;;;-128.00;-1.00;-1.00;18483;295;7504122;-35
2023/06/14 03:26:22;;;;;;;4.60;3.50;;;;;;;-128.00;-1.00;-1.00;18881;296;7504428;-31
2023/06/14 03:28:49;;;;;;;9.10;4.40;;;;;;;-128.00;-1.00;-1.00;18866;288;7505294;-35
2023/06/14 03:31:16;;;;;;;5.50;3.80;;;;;;;-128.00;-1.00;-1.00;18468;295;7506409;-34
2023/06/14 03:33:41;;;;;;;6.40;4.00;;;;;;;-128.00;-1.00;-1.00;18495;295;7504375;-35
2023/06/14 03:36:07;;;;;;;9.70;4.50;;;;;;;-128.00;-1.00;-1.00;18470;295;7504477;-31
2023/06/14 03:38:34;;;;;;;6.90;4.60;;;;;;;-128.00;-1.00;-1.00;18882;288;7504653;-31
2023/06/14 03:40:59;;;;;;;5.70;4.20;;;;;;;-128.00;-1.00;-1.00;18467;288;7504121;-34
2023/06/14 03:43:25;;;;;;;6.80;4.00;;;;;;;-128.00;-1.00;-1.00;18477;295;7504260;-34
2023/06/14 03:45:51;;;;;;;6.80;4.30;;;;;;;-128.00;-1.00;-1.00;18464;348;7504403;-31
2023/06/14 03:48:17;;;;;;;7.40;5.50;;;;;;;-128.00;-1.00;-1.00;18925;288;7504364;-34
2023/06/14 03:50:44;;;;;;;6.80;4.90;;;;;;;-128.00;-1.00;-1.00;18876;311;7504620;-35
2023/06/14 03:53:10;;;;;;;5.20;4.30;;;;;;;-128.00;-1.00;-1.00;18458;288;7507078;-34
2023/06/14 03:55:35;;;;;;;16.90;4.00;;;;;;;-128.00;-1.00;-1.00;18471;295;7504349;-31
2023/06/14 03:58:02;;;;;;;7.70;5.80;;;;;;;-128.00;-1.00;-1.00;18873;295;7504186;-31
2023/06/14 04:00:28;;;;;;;8.90;6.80;;;;;;;-128.00;-1.00;-1.00;18849;296;7504558;-34
2023/06/14 04:02:54;;;;;;;7.50;5.80;;;;;;;-128.00;-1.00;-1.00;18835;295;7504643;-30
2023/06/14 04:05:20;;;;;;;10.90;6.10;;;;;;;-128.00;-1.00;-1.00;18855;308;7505027;-31
2023/06/14 04:07:48;;;;;;;5.90;4.80;;;;;;;-128.00;-1.00;-1.00;18910;348;7505402;-31
2023/06/14 04:10:14;;;;;;;8.10;5.60;;;;;;;-128.00;-1.00;-1.00;18448;288;7504807;-34
2023/06/14 04:12:40;;;;;;;9.70;5.30;;;;;;;-128.00;-1.00;-1.00;18473;295;7504771;-34
2023/06/14 04:15:07;;;;;;;8.10;5.30;;;;;;;-128.00;-1.00;-1.00;18455;309;7504498;-35
2023/06/14 04:17:33;;;;;;;8.40;5.90;;;;;;;-128.00;-1.00;-1.00;18513;295;7506140;-31
2023/06/14 04:20:00;;;;;;;7.60;5.50;;;;;;;-128.00;-1.00;-1.00;18475;288;7504748;-35
2023/06/14 04:22:28;;;;;;;7.40;6.60;;;;;;;-128.00;-1.00;-1.00;18470;288;7504446;-35
2023/06/14 04:24:56;;;;;;;10.60;7.10;;;;;;;-128.00;-1.00;-1.00;18504;295;7504714;-35
2023/06/14 04:27:30;;;;;;;10.70;7.30;;;;;;;-128.00;-1.00;-1.00;18436;284;7504973;-35
2023/06/14 04:29:57;;;;;;;10.70;5.40;;;;;;;-128.00;-1.00;-1.00;18505;295;7504956;-31
2023/06/14 04:32:25;;;;;;;7.50;6.50;;;;;;;-128.00;-1.00;-1.00;18454;295;7505168;-35
2023/06/14 04:34:54;;;;;;;6.80;5.50;;;;;;;-128.00;-1.00;-1.00;18470;288;7505413;-31
2023/06/14 04:37:21;;;;;;;9.50;6.00;;;;;;;-128.00;-1.00;-1.00;18454;296;7505413;-31
2023/06/14 04:39:47;;;;;;;10.40;5.90;;;;;;;-128.00;-1.00;-1.00;18477;295;7505998;-34
2023/06/14 04:42:14;;;;;;;6.80;6.10;;;;;;;-128.00;-1.00;-1.00;18482;296;7504644;-31
2023/06/14 04:44:43;;;;;;;12.60;6.70;;;;;;;-128.00;-1.00;-1.00;18455;297;7505064;-35
2023/06/14 04:47:12;;;;;;;10.20;6.60;;;;;;;-128.00;-1.00;-1.00;18472;299;7506189;-35
2023/06/14 04:49:39;;;;;;;8.60;6.60;;;;;;;-128.00;-1.00;-1.00;18482;296;7505857;-30
2023/06/14 04:52:06;;;;;;;9.50;7.10;;;;;;;-128.00;-1.00;-1.00;18470;296;7504601;-35
2023/06/14 04:54:33;;;;;;;8.30;5.40;;;;;;;-128.00;-1.00;-1.00;18462;296;7504602;-34
2023/06/14 04:56:59;;;;;;;6.30;5.70;;;;;;;-128.00;-1.00;-1.00;18497;288;7504466;-31
2023/06/14 04:59:25;;;;;;;7.90;5.80;;;;;;;-128.00;-1.00;-1.00;18446;296;7506170;-34
2023/06/14 05:01:51;;;;;;;9.70;6.10;;;;;;;-128.00;-1.00;-1.00;18455;296;7504889;-34
2023/06/14 05:04:17;;;;;;;9.90;6.60;;;;;;;-128.00;-1.00;-1.00;18452;338;7504817;-34
2023/06/14 05:06:49;;;;;;;6.10;5.50;;;;;;;-128.00;-1.00;-1.00;18454;288;7505238;-30
2023/06/14 05:09:16;;;;;;;10.40;7.30;;;;;;;-128.00;-1.00;-1.00;18505;347;7504099;-34
2023/06/14 05:11:43;;;;;;;12.00;7.70;;;;;;;-128.00;-1.00;-1.00;18494;347;7504385;-35
2023/06/14 05:14:10;;;;;;;7.40;6.60;;;;;;;-128.00;-1.00;-1.00;18468;337;7504651;-35
2023/06/14 05:16:36;;;;;;;6.10;5.50;;;;;;;-128.00;-1.00;-1.00;18486;296;7504204;-32
2023/06/14 05:19:04;;;;;;;9.60;6.90;;;;;;;-128.00;-1.00;-1.00;18480;296;7504823;-32
2023/06/14 05:21:30;;;;;;;21.10;6.10;;;;;;;-128.00;-1.00;-1.00;18471;296;7506033;-31
2023/06/14 05:23:56;;;;;;;10.80;6.60;;;;;;;-128.00;-1.00;-1.00;18473;337;7506202;-35
2023/06/14 05:26:23;;;;;;;7.60;5.70;;;;;;;-128.00;-1.00;-1.00;18462;347;7506781;-31
2023/06/14 05:28:50;;;;;;;13.40;5.50;;;;;;;-128.00;-1.00;-1.00;18461;296;7505615;-31
2023/06/14 05:31:16;;;;;;;5.10;4.60;;;;;;;-128.00;-1.00;-1.00;18458;288;7506839;-31
2023/06/14 05:33:42;;;;;;;4.80;3.80;;;;;;;-128.00;-1.00;-1.00;18464;296;7506182;-35
2023/06/14 05:36:08;;;;;;;9.70;5.50;;;;;;;-128.00;-1.00;-1.00;18469;347;7504196;-31
2023/06/14 05:38:34;;;;;;;14.60;8.10;;;;;;;-128.00;-1.00;-1.00;18917;288;7504469;-31
2023/06/14 05:41:00;;;;;;;9.20;6.30;;;;;;;-128.00;-1.00;-1.00;18446;348;7504752;-32
2023/06/14 05:43:26;;;;;;;11.20;7.60;;;;;;;-128.00;-1.00;-1.00;18903;296;7504829;-32
2023/06/14 05:45:53;;;;;;;6.50;4.60;;;;;;;-128.00;-1.00;-1.00;18456;288;7505082;-32
2023/06/14 05:48:19;;;;;;;6.80;6.10;;;;;;;-128.00;-1.00;-1.00;18891;288;7504499;-35
2023/06/14 05:50:45;;;;;;;12.40;7.80;;;;;;;-128.00;-1.00;-1.00;18852;297;7504482;-32
2023/06/14 05:53:12;;;;;;;8.80;7.40;;;;;;;-128.00;-1.00;-1.00;18860;296;7504980;-31
2023/06/14 05:55:38;;;;;;;7.50;6.40;;;;;;;-128.00;-1.00;-1.00;18471;296;7506061;-35
2023/06/14 05:58:03;;;;;;;29.60;6.90;;;;;;;-128.00;-1.00;-1.00;18466;296;7504653;-35
2023/06/14 06:00:29;;;;;;;8.90;6.50;;;;;;;-128.00;-1.00;-1.00;18467;288;7504717;-36
2023/06/14 06:02:57;;;;;;;10.50;7.20;;;;;;;-128.00;-1.00;-1.00;18890;308;7504850;-35
2023/06/14 06:05:23;;;;;;;14.80;7.40;;;;;;;-128.00;-1.00;-1.00;18437;295;7506227;-35
2023/06/14 06:07:49;;;;;;;6.10;5.00;;;;;;;-128.00;-1.00;-1.00;18464;320;7505560;-31
2023/06/14 06:10:15;;;;;;;6.80;5.50;;;;;;;-128.00;-1.00;-1.00;18470;295;7504972;-35
2023/06/14 06:12:43;;;;;;;9.70;5.10;;;;;;;-128.00;-1.00;-1.00;18467;295;7504600;-31
2023/06/14 06:15:12;;;;;;;9.20;6.80;;;;;;;-128.00;-1.00;-1.00;18446;295;7505551;-30
2023/06/14 06:17:38;;;;;;;9.00;7.30;;;;;;;-128.00;-1.00;-1.00;18500;288;7504489;-32
2023/06/14 06:20:08;;;;;;;8.10;6.60;;;;;;;-128.00;-1.00;-1.00;18466;298;7504400;-33
2023/06/14 06:22:34;;;;;;;9.40;7.50;;;;;;;-128.00;-1.00;-1.00;18499;288;7505121;-32
2023/06/14 06:25:00;;;;;;;15.10;8.00;;;;;;;-128.00;-1.00;-1.00;18476;349;7506003;-32
2023/06/14 06:27:26;;;;;;;8.80;7.00;;;;;;;-128.00;-1.00;-1.00;18862;288;7504415;-33
2023/06/14 06:29:52;;;;;;;9.40;7.70;;;;;;;-128.00;-1.00;-1.00;18895;312;7504560;-36
2023/06/14 06:32:19;;;;;;;7.30;6.60;;;;;;;-128.00;-1.00;-1.00;18479;296;7505672;-37
2023/06/14 06:34:46;;;;;;;6.40;5.70;;;;;;;-128.00;-1.00;-1.00;18868;296;7504677;-31
2023/06/14 06:37:12;;;;;;;7.00;5.90;;;;;;;-128.00;-1.00;-1.00;18478;296;7506544;-35
2023/06/14 06:39:37;;;;;;;9.10;5.50;;;;;;;-128.00;-1.00;-1.00;18450;295;7504218;-32
2023/06/14 06:42:03;;;;;;;5.10;4.40;;;;;;;-128.00;-1.00;-1.00;18454;296;7504948;-31
2023/06/14 06:44:29;;;;;;;12.10;7.70;;;;;;;-128.00;-1.00;-1.00;18478;295;7504591;-32
2023/06/14 06:46:55;;;;;;;6.50;5.90;;;;;;;-128.00;-1.00;-1.00;18463;296;7504445;-35
2023/06/14 06:49:21;;;;;;;5.90;5.30;;;;;;;-128.00;-1.00;-1.00;18477;348;7506314;-35
2023/06/14 06:51:59;;;;;;;7.00;4.80;;;;;;;-128.00;-1.00;-1.00;18481;284;7504255;-35
2023/06/14 06:54:25;;;;;;;7.40;6.60;;;;;;;-128.00;-1.00;-1.00;18492;295;7506093;-35
2023/06/14 06:56:51;;;;;;;9.80;7.50;;;;;;;-128.00;-1.00;-1.00;18464;296;7505974;-36
2023/06/14 06:59:17;;;;;;;11.00;6.90;;;;;;;-128.00;-1.00;-1.00;18890;296;7505352;-32
2023/06/14 07:01:44;;;;;;;7.00;6.40;;;;;;;-128.00;-1.00;-1.00;18888;308;7504940;-31
2023/06/14 07:04:10;;;;;;;13.70;7.50;;;;;;;-128.00;-1.00;-1.00;18888;295;7504701;-35
2023/06/14 07:06:37;;;;;;;7.30;6.30;;;;;;;-128.00;-1.00;-1.00;18866;337;7505856;-35
2023/06/14 07:09:04;;;;;;;11.60;6.60;;;;;;;-128.00;-1.00;-1.00;18476;297;7504253;-35
2023/06/14 07:11:31;;;;;;;7.60;5.90;;;;;;;-128.00;-1.00;-1.00;18460;295;7506282;-31
2023/06/14 07:13:56;;;;;;;6.10;5.00;;;;;;;-128.00;-1.00;-1.00;18472;337;7506123;-31
2023/06/14 07:16:23;;;;;;;6.00;5.10;;;;;;;-128.00;-1.00;-1.00;18460;288;7505382;-31
2023/06/14 07:18:48;;;;;;;6.80;6.00;;;;;;;-128.00;-1.00;-1.00;18502;295;7504189;-31
2023/06/14 07:21:14;;;;;;;6.50;5.70;;;;;;;-128.00;-1.00;-1.00;18466;338;7506467;-35
2023/06/14 07:23:40;;;;;;;5.20;4.50;;;;;;;-128.00;-1.00;-1.00;18862;295;7504517;-30
2023/06/14 07:26:07;;;;;;;7.90;4.10;;;;;;;-128.00;-1.00;-1.00;18869;331;7504548;-34
2023/06/14 07:28:33;;;;;;;7.20;5.80;;;;;;;-128.00;-1.00;-1.00;18847;348;7505477;-31
2023/06/14 07:30:59;;;;;;;8.40;6.20;;;;;;;-128.00;-1.00;-1.00;18869;297;7504998;-34
2023/06/14 07:33:26;;;;;;;10.00;6.10;;;;;;;-128.00;-1.00;-1.00;18476;296;7504593;-31
2023/06/14 07:35:52;;;;;;;4.10;3.60;;;;;;;-128.00;-1.00;-1.00;18443;295;7504487;-34
2023/06/14 07:38:18;;;;;;;4.10;3.60;;;;;;;-128.00;-1.00;-1.00;18448;288;7504859;-31
2023/06/14 07:40:44;;;;;;;4.30;3.40;;;;;;;-128.00;-1.00;-1.00;18454;295;7504555;-34
2023/06/14 07:43:10;;;;;;;16.90;4.90;;;;;;;-128.00;-1.00;-1.00;18468;336;7504443;-31
2023/06/14 07:45:36;;;;;;;7.60;4.70;;;;;;;-128.00;-1.00;-1.00;18476;296;7504500;-31
2023/06/14 07:48:02;;;;;;;6.10;4.20;;;;;;;-128.00;-1.00;-1.00;18462;296;7506254;-31
2023/06/14 07:50:28;;;;;;;3.90;3.10;;;;;;;-128.00;-1.00;-1.00;18481;295;7504332;-35
2023/06/14 07:52:54;;;;;;;8.60;3.80;;;;;;;-128.00;-1.00;-1.00;18506;312;7505801;-35
2023/06/14 07:55:20;;;;;;;8.20;5.10;;;;;;;-128.00;-1.00;-1.00;18453;295;7505998;-32
2023/06/14 07:57:47;;;;;;;5.80;4.70;;;;;;;-128.00;-1.00;-1.00;18844;296;7504074;-32
2023/06/14 08:00:15;;;;;;;4.00;3.60;;;;;;;-128.00;-1.00;-1.00;18461;296;7506070;-31
2023/06/14 08:02:42;;;;;;;9.70;3.80;;;;;;;-128.00;-1.00;-1.00;18471;295;7504801;-31
2023/06/14 08:05:10;;;;;;;5.40;4.60;;;;;;;-128.00;-1.00;-1.00;18446;288;7504740;-32
2023/06/14 08:07:36;;;;;;;5.90;5.30;;;;;;;-128.00;-1.00;-1.00;18450;296;7504849;-32
2023/06/14 08:10:03;;;;;;;4.30;2.90;;;;;;;-128.00;-1.00;-1.00;18478;296;7506537;-32
2023/06/14 08:12:29;;;;;;;4.10;2.90;;;;;;;-128.00;-1.00;-1.00;18480;296;7504287;-31
2023/06/14 08:14:54;;;;;;;5.30;4.80;;;;;;;-128.00;-1.00;-1.00;18483;295;7505273;-32
2023/06/14 08:17:20;;;;;;;19.00;4.20;;;;;;;-128.00;-1.00;-1.00;18455;316;7504258;-31
2023/06/14 08:19:47;;;;;;;4.80;3.10;;;;;;;-128.00;-1.00;-1.00;18478;288;7504366;-34
2023/06/14 08:22:13;;;;;;;6.10;4.40;;;;;;;-128.00;-1.00;-1.00;18889;299;7505762;-31
2023/06/14 08:24:40;;;;;;;12.70;5.10;;;;;;;-128.00;-1.00;-1.00;18863;288;7504825;-35
2023/06/14 08:27:06;;;;;;;6.50;4.80;;;;;;;-128.00;-1.00;-1.00;18447;295;7506389;-35
2023/06/14 08:29:32;;;;;;;8.30;3.90;;;;;;;-128.00;-1.00;-1.00;18491;348;7505681;-31
2023/06/14 08:31:57;;;;;;;5.40;4.60;;;;;;;-128.00;-1.00;-1.00;18464;284;7504304;-31
2023/06/14 08:34:23;;;;;;;4.90;3.90;;;;;;;-128.00;-1.00;-1.00;18446;288;7506230;-35
2023/06/14 08:36:50;;;;;;;5.60;5.10;;;;;;;-128.00;-1.00;-1.00;18459;288;7506333;-31
2023/06/14 08:39:16;;;;;;;8.00;5.30;;;;;;;-128.00;-1.00;-1.00;18502;288;7506122;-35
2023/06/14 08:41:43;;;;;;;5.50;4.70;;;;;;;-128.00;-1.00;-1.00;18894;288;7505176;-31
2023/06/14 08:44:08;;;;;;;5.80;5.00;;;;;;;-128.00;-1.00;-1.00;18480;296;7504569;-32
2023/06/14 08:46:34;;;;;;;4.60;3.20;;;;;;;-128.00;-1.00;-1.00;18479;296;7504980;-36
2023/06/14 08:49:01;;;;;;;7.10;4.70;;;;;;;-128.00;-1.00;-1.00;18460;297;7506247;-36
2023/06/14 08:51:33;;;;;;;6.70;4.10;;;;;;;-128.00;-1.00;-1.00;18469;296;7506246;-36
2023/06/14 08:54:01;;;;;;;4.60;3.90;;;;;;;-128.00;-1.00;-1.00;18458;288;7504603;-36
2023/06/14 08:56:30;;;;;;;4.40;4.00;;;;;;;-128.00;-1.00;-1.00;18471;288;7504189;-35
2023/06/14 08:59:01;;;;;;;12.70;3.60;;;;;;;-128.00;-1.00;-1.00;18462;296;7504733;-31
2023/06/14 09:01:26;;;;;;;5.70;4.00;;;;;;;-128.00;-1.00;-1.00;18484;296;7505287;-31
2023/06/14 09:03:54;;;;;;;5.10;4.60;;;;;;;-128.00;-1.00;-1.00;18874;297;7507424;-31
2023/06/14 09:06:23;;;;;;;4.20;3.70;;;;;;;-128.00;-1.00;-1.00;18456;296;7506562;-35
2023/06/14 09:08:49;;;;;;;5.60;5.10;;;;;;;-128.00;-1.00;-1.00;18470;295;7506199;-31
2023/06/14 09:11:16;;;;;;;5.10;4.10;;;;;;;-128.00;-1.00;-1.00;18466;288;7505196;-32
2023/06/14 09:13:41;;;;;;;3.90;3.60;;;;;;;-128.00;-1.00;-1.00;18450;296;7506394;-32
2023/06/14 09:16:08;;;;;;;6.70;5.40;;;;;;;-128.00;-1.00;-1.00;18477;337;7505992;-32
2023/06/14 09:18:44;;;;;;;4.30;3.90;;;;;;;-128.00;-1.00;-1.00;18450;296;7505092;-32
2023/06/14 09:21:11;;;;;;;4.10;3.70;;;;;;;-128.00;-1.00;-1.00;18417;316;7504746;-34
2023/06/14 09:23:38;;;;;;;4.60;3.40;;;;;;;-128.00;-1.00;-1.00;18449;297;7504362;-35
2023/06/14 09:26:09;;;;;;;3.90;3.50;;;;;;;-128.00;-1.00;-1.00;18462;288;7505308;-35
2023/06/14 09:28:34;;;;;;;3.90;3.20;;;;;;;-128.00;-1.00;-1.00;18485;296;7507171;-31
2023/06/14 09:31:01;;;;;;;4.40;3.60;;;;;;;-128.00;-1.00;-1.00;18882;295;7504784;-31
2023/06/14 09:33:30;;;;;;;9.60;4.60;;;;;;;-128.00;-1.00;-1.00;18836;288;7504899;-34
2023/06/14 09:35:56;;;;;;;2.10;1.80;;;;;;;-128.00;-1.00;-1.00;18475;312;7505915;-35
2023/06/14 09:38:21;;;;;;;3.00;2.70;;;;;;;-128.00;-1.00;-1.00;18451;288;7504880;-32
2023/06/14 09:40:47;;;;;;;4.00;3.60;;;;;;;-128.00;-1.00;-1.00;18462;336;7505489;-32
2023/06/14 09:43:13;;;;;;;3.40;3.10;;;;;;;-128.00;-1.00;-1.00;18884;295;7504567;-32
2023/06/14 09:45:39;;;;;;;4.10;2.90;;;;;;;-128.00;-1.00;-1.00;18873;288;7505056;-36
2023/06/14 09:48:07;;;;;;;4.20;3.70;;;;;;;-128.00;-1.00;-1.00;18860;296;7505233;-35
2023/06/14 09:50:33;;;;;;;6.00;3.80;;;;;;;-128.00;-1.00;-1.00;18481;288;7506490;-33
2023/06/14 09:53:03;;;;;;;4.00;3.00;;;;;;;-128.00;-1.00;-1.00;18454;295;7505274;-36
2023/06/14 09:55:28;;;;;;;3.70;3.00;;;;;;;-128.00;-1.00;-1.00;18488;288;7504658;-36
2023/06/14 09:57:55;;;;;;;4.60;3.20;;;;;;;-128.00;-1.00;-1.00;18843;288;7504668;-33
2023/06/14 10:00:23;;;;;;;2.60;2.40;;;;;;;-128.00;-1.00;-1.00;18473;288;7506277;-33
2023/06/14 10:02:51;;;;;;;6.80;2.30;;;;;;;-128.00;-1.00;-1.00;18488;284;7504356;-33
2023/06/14 10:05:16;;;;;;;3.40;2.70;;;;;;;-128.00;-1.00;-1.00;18463;320;7505930;-33
2023/06/14 10:07:55;;;;;;;3.80;3.50;;;;;;;-128.00;-1.00;-1.00;18465;295;7504474;-37
2023/06/14 10:10:21;;;;;;;2.70;2.50;;;;;;;-128.00;-1.00;-1.00;18478;288;7504547;-37
2023/06/14 10:12:48;;;;;;;4.10;2.70;;;;;;;-128.00;-1.00;-1.00;18454;336;7506275;-37
2023/06/14 10:15:30;;;;;;;4.00;3.40;;;;;;;-128.00;-1.00;-1.00;18489;296;7504699;-36
2023/06/14 10:17:57;;;;;;;3.80;3.50;;;;;;;-128.00;-1.00;-1.00;18466;297;7504894;-31
2023/06/14 10:20:30;;;;;;;4.10;2.30;;;;;;;-128.00;-1.00;-1.00;18448;296;7504746;-31
2023/06/14 10:23:10;;;;;;;3.30;3.00;;;;;;;-128.00;-1.00;-1.00;18438;295;7506275;-35
2023/06/14 10:25:37;;;;;;;7.20;4.30;;;;;;;-128.00;-1.00;-1.00;18455;348;7505798;-31
2023/06/14 10:28:19;;;;;;;3.90;2.70;;;;;;;-128.00;-1.00;-1.00;18469;288;7504577;-35
2023/06/14 10:31:04;;;;;;;13.60;2.90;;;;;;;-128.00;-1.00;-1.00;18493;295;7504562;-31
2023/06/14 10:33:30;;;;;;;3.90;3.10;;;;;;;-128.00;-1.00;-1.00;18446;297;7505890;-35
2023/06/14 10:36:24;;;;;;;4.30;3.60;;;;;;;-128.00;-1.00;-1.00;18453;348;7504911;-31
2023/06/14 10:38:58;;;;;;;6.00;3.20;;;;;;;-128.00;-1.00;-1.00;18425;297;7505843;-31
2023/06/14 10:41:27;;;;;;;3.50;3.20;;;;;;;-128.00;-1.00;-1.00;18470;288;7504656;-35
2023/06/14 10:43:53;;;;;;;4.30;3.70;;;;;;;-128.00;-1.00;-1.00;18490;296;7506858;-35
2023/06/14 10:46:22;;;;;;;3.60;3.20;;;;;;;-128.00;-1.00;-1.00;18452;336;7506032;-34
2023/06/14 10:48:48;;;;;;;10.00;3.30;;;;;;;-128.00;-1.00;-1.00;18473;288;7504728;-31
2023/06/14 10:51:20;;;;;;;5.60;4.20;;;;;;;-128.00;-1.00;-1.00;18477;347;7505400;-32
2023/06/14 10:53:48;;;;;;;2.80;2.40;;;;;;;-128.00;-1.00;-1.00;18491;288;7504977;-32
2023/06/14 10:56:30;;;;;;;4.50;3.50;;;;;;;-128.00;-1.00;-1.00;18482;295;7504563;-32
2023/06/14 10:58:57;;;;;;;2.40;2.00;;;;;;;-128.00;-1.00;-1.00;18485;348;7506061;-32
2023/06/14 11:01:36;;;;;;;2.80;2.40;;;;;;;-128.00;-1.00;-1.00;18449;296;7504564;-36
2023/06/14 11:04:10;;;;;;;3.20;2.90;;;;;;;-128.00;-1.00;-1.00;18452;295;7505201;-32
2023/06/14 11:06:48;;;;;;;3.40;2.80;;;;;;;-128.00;-1.00;-1.00;18502;295;7504580;-32
2023/06/14 11:09:45;;;;;;;4.20;3.10;;;;;;;-128.00;-1.00;-1.00;18454;295;7504501;-36
2023/06/14 11:12:11;;;;;;;2.60;2.20;;;;;;;-128.00;-1.00;-1.00;18471;288;7506222;-32
2023/06/14 11:14:38;;;;;;;2.70;2.30;;;;;;;-128.00;-1.00;-1.00;18472;295;7504707;-33
2023/06/14 11:17:04;;;;;;;4.30;3.10;;;;;;;-128.00;-1.00;-1.00;18457;295;7504904;-36
2023/06/14 11:19:31;;;;;;;12.30;4.60;;;;;;;-128.00;-1.00;-1.00;18488;288;7504446;-33
2023/06/14 11:21:58;;;;;;;3.30;2.50;;;;;;;-128.00;-1.00;-1.00;18448;295;7505134;-36
2023/06/14 11:24:24;;;;;;;3.10;2.80;;;;;;;-128.00;-1.00;-1.00;18472;288;7504445;-36
2023/06/14 11:26:50;;;;;;;3.00;2.50;;;;;;;-128.00;-1.00;-1.00;18474;332;7504255;-33
2023/06/14 11:29:16;;;;;;;3.00;2.60;;;;;;;-128.00;-1.00;-1.00;18462;296;7504684;-36
2023/06/14 11:31:45;;;;;;;3.40;2.70;;;;;;;-128.00;-1.00;-1.00;18452;295;7505797;-37
2023/06/14 11:34:12;;;;;;;7.80;2.70;;;;;;;-128.00;-1.00;-1.00;18486;288;7505992;-35
2023/06/14 11:36:41;;;;;;;4.70;3.50;;;;;;;-128.00;-1.00;-1.00;18504;298;7506577;-32
2023/06/14 11:39:10;;;;;;;3.70;2.10;;;;;;;-128.00;-1.00;-1.00;18472;296;7505439;-35
2023/06/14 11:41:38;;;;;;;2.80;2.40;;;;;;;-128.00;-1.00;-1.00;18481;296;7504542;-31
2023/06/14 11:44:03;;;;;;;3.50;3.10;;;;;;;-128.00;-1.00;-1.00;18489;295;7504786;-32
2023/06/14 11:46:29;;;;;;;3.20;2.60;;;;;;;-128.00;-1.00;-1.00;18492;296;7504403;-32
2023/06/14 11:48:55;;;;;;;3.80;2.80;;;;;;;-128.00;-1.00;-1.00;18492;295;7504732;-35
2023/06/14 11:51:20;;;;;;;3.00;2.70;;;;;;;-128.00;-1.00;-1.00;18463;284;7506384;-36
2023/06/14 11:53:46;;;;;;;4.40;2.40;;;;;;;-128.00;-1.00;-1.00;18465;288;7506029;-35
2023/06/14 11:56:12;;;;;;;2.90;2.20;;;;;;;-128.00;-1.00;-1.00;18454;295;7505089;-36
2023/06/14 11:58:37;;;;;;;8.40;4.00;;;;;;;-128.00;-1.00;-1.00;18477;295;7504918;-36
2023/06/14 12:01:03;;;;;;;3.00;2.70;;;;;;;-128.00;-1.00;-1.00;18511;295;7505486;-32
2023/06/14 12:03:29;;;;;;;3.20;2.70;;;;;;;-128.00;-1.00;-1.00;18504;295;7504767;-35
2023/06/14 12:06:08;;;;;;;3.50;2.40;;;;;;;-128.00;-1.00;-1.00;18480;347;7504357;-32
2023/06/14 12:08:39;;;;;;;2.30;2.10;;;;;;;-128.00;-1.00;-1.00;18456;348;7504323;-32
2023/06/14 12:11:12;;;;;;;3.40;2.20;;;;;;;-128.00;-1.00;-1.00;18467;295;7505168;-35
2023/06/14 12:13:39;;;;;;;5.30;4.30;;;;;;;-128.00;-1.00;-1.00;18479;288;7506174;-35